Time;durP1;ratioP1;P1;durP2;ratioP2;P2;SDS_P1;SDS_P2;PMS_P1;PMS_P2;Temp;Humidity;BMP_temperature;BMP_pressure;BME280_temperature;BME280_humidity;BME280_pressure;Samples;Min_cycle;Max_cycle;Signal;HPM_P1;HPM_P2
2022/11/12 00:02:18;;;;;;;7.38;3.80;;;;;;;11.03;90.66;102432.19;4903403;29;20091;-72
2022/11/12 00:05:02;;;;;;;5.65;3.53;;;;;;;10.96;91.32;102431.84;4923538;29;20071;-71
2022/11/12 00:07:47;;;;;;;5.45;3.20;;;;;;;10.97;92.15;102422.66;4922014;29;20078;-71
2022/11/12 00:10:31;;;;;;;6.88;3.15;;;;;;;10.93;93.17;102410.94;4926856;29;20460;-72
2022/11/12 00:13:15;;;;;;;7.35;3.35;;;;;;;11.09;93.90;102428.25;4905608;28;20048;-72
2022/11/12 00:15:59;;;;;;;5.07;3.30;;;;;;;11.23;93.53;102428.91;4959638;28;20566;-71
2022/11/12 00:18:43;;;;;;;6.78;2.63;;;;;;;11.23;93.22;102423.50;4959037;28;20058;-72
2022/11/12 00:21:27;;;;;;;5.95;3.38;;;;;;;11.24;94.46;102425.91;4959502;28;20054;-71
2022/11/12 00:24:11;;;;;;;6.57;3.53;;;;;;;11.33;93.62;102428.59;4960109;28;20538;-72
2022/11/12 00:26:56;;;;;;;8.70;3.42;;;;;;;11.19;95.13;102426.03;4951221;28;20054;-71
2022/11/12 00:29:40;;;;;;;11.00;4.25;;;;;;;11.35;94.65;102411.00;4954395;28;20054;-72
2022/11/12 00:32:24;;;;;;;7.78;3.55;;;;;;;11.48;94.17;102425.44;4954494;28;20102;-71
2022/11/12 00:35:08;;;;;;;12.68;4.43;;;;;;;11.39;94.35;102436.22;4952700;28;20098;-72
2022/11/12 00:37:53;;;;;;;7.95;3.78;;;;;;;11.35;95.39;102415.59;4959042;28;20065;-71
2022/11/12 00:40:38;;;;;;;7.28;3.63;;;;;;;11.40;94.97;102429.72;4960015;28;20124;-72
2022/11/12 00:43:23;;;;;;;9.02;3.97;;;;;;;11.46;95.91;102423.06;4951986;28;20130;-72
2022/11/12 00:46:08;;;;;;;12.35;4.07;;;;;;;11.61;94.99;102422.59;4948202;28;20898;-72
2022/11/12 00:48:51;;;;;;;10.25;4.07;;;;;;;11.76;94.41;102421.34;4951927;28;20575;-71
2022/11/12 00:51:35;;;;;;;8.00;3.85;;;;;;;11.83;93.97;102418.97;4954471;28;20108;-71
2022/11/12 00:54:19;;;;;;;7.93;4.40;;;;;;;11.76;94.14;102421.34;4951118;28;20050;-71
2022/11/12 00:57:03;;;;;;;9.00;3.92;;;;;;;11.81;93.56;102429.28;4944877;28;20050;-72
2022/11/12 00:59:47;;;;;;;8.15;3.40;;;;;;;11.81;93.05;102423.88;4953432;28;20098;-72
2022/11/12 01:02:31;;;;;;;8.32;3.65;;;;;;;11.64;93.58;102423.88;4952845;28;20094;-72
2022/11/12 01:05:15;;;;;;;6.68;3.72;;;;;;;11.58;93.29;102422.44;4944704;28;20170;-72
2022/11/12 01:07:59;;;;;;;11.05;4.57;;;;;;;11.38;94.25;102420.38;4948957;29;20094;-71
2022/11/12 01:10:43;;;;;;;9.32;3.35;;;;;;;11.56;94.18;102424.66;4953648;28;20118;-71
2022/11/12 01:13:27;;;;;;;6.43;3.20;;;;;;;11.53;94.13;102417.19;4951712;28;20046;-73
2022/11/12 01:16:14;;;;;;;5.25;3.35;;;;;;;11.53;93.69;102418.00;4959334;28;20114;-72
2022/11/12 01:19:00;;;;;;;8.40;3.97;;;;;;;11.51;93.33;102416.72;4953329;29;20058;-71
2022/11/12 01:21:44;;;;;;;8.27;3.50;;;;;;;11.55;93.66;102414.97;4950964;28;20058;-71
2022/11/12 01:24:29;;;;;;;8.48;4.07;;;;;;;11.57;93.41;102418.97;4943112;28;20089;-71
2022/11/12 01:27:15;;;;;;;6.30;3.78;;;;;;;11.49;92.97;102416.25;4953487;28;20054;-72
2022/11/12 01:30:00;;;;;;;10.05;3.47;;;;;;;11.44;94.24;102411.03;4953425;28;20399;-71
2022/11/12 01:32:44;;;;;;;6.80;3.38;;;;;;;11.44;93.22;102421.81;4944747;28;20108;-71
2022/11/12 01:35:28;;;;;;;7.70;3.50;;;;;;;11.45;93.38;102405.31;4955249;28;20047;-71
2022/11/12 01:38:13;;;;;;;8.10;4.47;;;;;;;11.44;93.61;102411.03;4951471;28;20053;-71
2022/11/12 01:40:56;;;;;;;6.88;3.88;;;;;;;11.54;93.27;102422.28;4953095;29;20511;-73
2022/11/12 01:43:41;;;;;;;7.97;3.22;;;;;;;11.61;92.94;102408.31;4946975;28;20050;-72
2022/11/12 01:46:28;;;;;;;6.72;3.88;;;;;;;11.61;92.82;102413.72;4948867;28;20047;-72
2022/11/12 01:49:17;;;;;;;7.05;3.70;;;;;;;11.49;93.01;102408.16;4953232;28;20050;-71
2022/11/12 01:52:11;;;;;;;15.02;3.60;;;;;;;11.55;93.08;102412.28;4953003;29;20123;-72
2022/11/12 01:55:04;;;;;;;7.55;4.25;;;;;;;11.42;93.56;102407.84;4950101;28;20057;-71
2022/11/12 01:57:55;;;;;;;6.25;3.63;;;;;;;11.46;92.66;102416.88;4953109;28;20122;-72
2022/11/12 02:00:40;;;;;;;5.88;3.13;;;;;;;11.57;93.30;102410.06;4972386;22;20081;-63
2022/11/12 02:03:28;;;;;;;5.60;3.42;;;;;;;11.59;93.08;102411.31;4944102;28;20602;-64
2022/11/12 02:06:13;;;;;;;7.13;3.78;;;;;;;11.62;93.41;102415.28;4951227;28;20050;-64
2022/11/12 02:08:58;;;;;;;5.88;3.08;;;;;;;11.62;92.63;102416.09;4951866;29;20065;-64
2022/11/12 02:11:42;;;;;;;8.40;3.53;;;;;;;11.63;92.40;102419.59;4958536;28;20050;-64
2022/11/12 02:14:27;;;;;;;14.50;3.42;;;;;;;11.61;92.52;102419.13;4956916;28;20606;-65
2022/11/12 02:17:11;;;;;;;6.45;3.60;;;;;;;11.67;92.17;102409.78;4951200;29;20058;-65
2022/11/12 02:19:58;;;;;;;6.50;3.63;;;;;;;11.63;92.42;102417.66;4955796;28;20106;-64
2022/11/12 02:22:42;;;;;;;11.18;3.78;;;;;;;11.64;92.51;102415.75;4960390;28;20431;-65
2022/11/12 02:25:27;;;;;;;15.32;3.88;;;;;;;11.70;92.47;102417.22;4951073;28;20433;-65
2022/11/12 02:28:15;;;;;;;6.47;3.50;;;;;;;11.70;92.34;102422.63;4955306;28;20053;-65
2022/11/12 02:30:59;;;;;;;9.50;4.03;;;;;;;11.67;92.07;102415.94;4958968;28;20094;-65
2022/11/12 02:33:43;;;;;;;8.73;3.30;;;;;;;11.67;92.35;102409.78;4952194;29;20526;-65
2022/11/12 02:36:28;;;;;;;5.50;2.97;;;;;;;11.71;92.00;102425.00;4948801;28;20141;-65
2022/11/12 02:39:12;;;;;;;9.45;3.53;;;;;;;11.73;92.11;102424.66;4962642;28;20158;-64
2022/11/12 02:41:56;;;;;;;11.55;3.50;;;;;;;11.58;92.01;102419.72;4952667;28;20103;-65
2022/11/12 02:44:40;;;;;;;9.23;4.10;;;;;;;11.66;92.26;102418.97;4950312;28;20544;-65
2022/11/12 02:47:24;;;;;;;7.63;3.55;;;;;;;11.64;92.48;102426.56;4951863;29;20050;-65
2022/11/12 02:50:09;;;;;;;9.27;3.70;;;;;;;11.57;92.44;102431.66;4948103;29;20054;-65
2022/11/12 02:52:53;;;;;;;6.90;3.30;;;;;;;11.62;91.68;102432.28;4952643;28;20534;-65
2022/11/12 02:55:36;;;;;;;8.65;3.45;;;;;;;11.68;91.38;102435.66;4952447;28;20055;-65
2022/11/12 02:58:23;;;;;;;6.82;3.80;;;;;;;11.77;90.46;102425.63;4955575;29;20046;-65
2022/11/12 03:01:08;;;;;;;7.43;3.85;;;;;;;11.61;89.85;102433.38;4959579;28;20046;-65
2022/11/12 03:03:52;;;;;;;8.27;3.78;;;;;;;11.51;89.83;102431.03;4952695;29;20118;-65
2022/11/12 03:06:36;;;;;;;6.13;3.17;;;;;;;11.42;90.51;102432.13;4947453;28;20852;-65
2022/11/12 03:09:20;;;;;;;10.25;3.38;;;;;;;11.27;90.73;102440.66;4961738;28;20415;-65
2022/11/12 03:12:04;;;;;;;7.35;3.40;;;;;;;11.32;90.46;102443.22;4957891;28;20050;-65
2022/11/12 03:14:48;;;;;;;6.30;3.30;;;;;;;11.28;89.59;102440.34;4937847;28;20051;-65
2022/11/12 03:17:33;;;;;;;7.45;3.67;;;;;;;11.19;90.53;102444.16;4953664;28;20460;-64
2022/11/12 03:20:18;;;;;;;8.50;3.53;;;;;;;11.07;90.15;102443.94;4955246;28;20578;-65
2022/11/12 03:23:05;;;;;;;6.20;3.58;;;;;;;11.08;90.72;102437.44;4955301;29;20046;-65
2022/11/12 03:25:49;;;;;;;9.15;3.88;;;;;;;11.07;90.17;102433.94;4957831;28;20041;-65
2022/11/12 03:28:33;;;;;;;7.80;3.95;;;;;;;10.94;90.77;102444.88;4955124;28;20105;-65
2022/11/12 03:31:17;;;;;;;6.88;3.38;;;;;;;10.98;90.78;102438.53;4955591;29;20050;-64
2022/11/12 03:34:02;;;;;;;7.18;4.22;;;;;;;10.94;90.63;102426.78;4954241;28;20561;-65
2022/11/12 03:36:46;;;;;;;8.20;3.70;;;;;;;11.00;90.61;102449.00;4961182;28;20095;-64
2022/11/12 03:39:29;;;;;;;8.43;4.18;;;;;;;10.93;90.45;102435.19;4954945;29;20159;-64
2022/11/12 03:42:13;;;;;;;7.13;3.60;;;;;;;10.85;90.51;102432.16;4950441;29;20047;-65
2022/11/12 03:44:57;;;;;;;6.18;3.40;;;;;;;10.88;90.50;102436.91;4947094;28;20074;-64
2022/11/12 03:47:47;;;;;;;5.95;3.33;;;;;;;10.83;90.50;102438.97;4951901;29;20043;-64
2022/11/12 03:50:31;;;;;;;9.02;4.15;;;;;;;10.68;91.27;102432.06;4951160;28;20415;-64
2022/11/12 03:53:15;;;;;;;11.25;4.10;;;;;;;10.64;92.22;102439.22;4956327;28;20060;-65
2022/11/12 03:55:59;;;;;;;9.05;3.70;;;;;;;10.72;91.84;102446.50;4959471;28;20098;-64
2022/11/12 03:58:46;;;;;;;11.13;4.35;;;;;;;10.76;91.55;102442.09;4954646;28;20078;-65
2022/11/12 04:01:30;;;;;;;10.40;4.20;;;;;;;10.67;91.44;102424.31;4952354;28;20102;-64
2022/11/12 04:04:14;;;;;;;10.20;4.10;;;;;;;10.73;91.21;102431.94;4963654;28;20258;-65
2022/11/12 04:10:04;;;;;;;7.00;3.63;;;;;;;10.65;90.75;102440.78;4954594;28;20059;-64
2022/11/12 04:22:06;;;;;;;6.60;3.42;;;;;;;10.51;90.39;102448.16;4954573;29;20046;-64
2022/11/12 04:27:53;;;;;;;6.00;3.30;;;;;;;10.38;91.71;102443.66;4953083;28;20143;-64
2022/11/12 04:30:37;;;;;;;7.30;4.10;;;;;;;10.34;91.77;102449.97;4953059;28;20070;-64
2022/11/12 04:33:21;;;;;;;6.95;4.07;;;;;;;10.39;92.20;102444.47;4962737;28;20049;-64
2022/11/12 04:36:05;;;;;;;6.00;3.28;;;;;;;10.36;91.78;102437.78;4950553;29;20343;-66
2022/11/12 04:38:49;;;;;;;6.65;3.63;;;;;;;10.35;91.35;102440.81;4949991;28;20065;-64
2022/11/12 04:47:40;;;;;;;5.63;3.55;;;;;;;10.28;91.32;102445.84;4947470;29;20086;-64
2022/11/12 04:50:24;;;;;;;8.43;4.28;;;;;;;10.30;90.94;102455.19;4947556;28;20109;-64
2022/11/12 04:53:08;;;;;;;8.25;3.63;;;;;;;10.16;90.71;102441.03;4964709;28;20061;-63
2022/11/12 04:55:54;;;;;;;6.47;3.58;;;;;;;9.99;90.64;102438.16;4938992;28;20081;-64
2022/11/12 04:58:38;;;;;;;6.63;3.92;;;;;;;10.11;90.92;102446.50;4951093;29;20178;-64
2022/11/12 05:01:23;;;;;;;6.63;3.83;;;;;;;10.09;90.80;102440.59;4953568;28;20082;-64
2022/11/12 05:04:07;;;;;;;5.30;3.05;;;;;;;10.15;90.54;102450.19;4950897;29;20523;-64
2022/11/12 05:06:50;;;;;;;6.47;3.78;;;;;;;10.09;90.00;102453.25;4953769;28;20037;-64
2022/11/12 05:09:35;;;;;;;6.63;3.83;;;;;;;10.02;90.23;102445.63;4960016;28;20205;-64
2022/11/12 05:12:20;;;;;;;5.68;3.55;;;;;;;9.82;90.06;102438.84;4953021;28;20133;-64
2022/11/12 05:15:04;;;;;;;5.65;3.67;;;;;;;9.74;91.12;102436.06;4949186;28;20107;-64
2022/11/12 05:17:48;;;;;;;5.22;3.35;;;;;;;9.74;90.55;102436.88;4957647;28;20054;-64
2022/11/12 05:20:34;;;;;;;8.43;3.80;;;;;;;9.78;90.93;102447.81;4952798;28;20073;-64
2022/11/12 05:23:21;;;;;;;6.10;3.42;;;;;;;9.72;90.35;102447.16;4951949;28;20126;-64
2022/11/12 05:26:05;;;;;;;4.78;3.17;;;;;;;9.59;91.24;102449.88;4948851;28;20411;-63
2022/11/12 05:28:49;;;;;;;5.05;3.35;;;;;;;9.68;90.99;102437.28;4953470;29;20323;-64
2022/11/12 05:31:33;;;;;;;6.75;3.33;;;;;;;9.68;90.22;102442.66;4951715;29;20279;-64
2022/11/12 05:34:17;;;;;;;7.30;3.65;;;;;;;9.66;90.27;102440.28;4955984;28;20162;-64
2022/11/12 05:37:03;;;;;;;6.75;3.47;;;;;;;9.65;89.62;102454.06;4957617;28;20090;-64
2022/11/12 05:39:47;;;;;;;5.88;3.80;;;;;;;9.54;89.63;102458.84;4946273;28;20053;-64
2022/11/12 05:42:31;;;;;;;6.93;2.95;;;;;;;9.55;89.85;102454.28;4945279;28;20055;-64
2022/11/12 05:45:15;;;;;;;12.38;4.05;;;;;;;9.37;89.85;102447.16;4954311;28;20046;-64
2022/11/12 05:47:59;;;;;;;5.53;3.10;;;;;;;9.39;89.95;102456.50;4945917;29;20408;-64
2022/11/12 05:50:43;;;;;;;6.57;4.05;;;;;;;9.51;90.29;102469.41;4949564;28;20062;-65
2022/11/12 05:53:27;;;;;;;7.70;3.47;;;;;;;9.37;90.23;102458.69;4961739;28;20100;-64
2022/11/12 05:56:11;;;;;;;9.27;4.00;;;;;;;9.35;89.99;102455.50;4944999;29;20123;-64
2022/11/12 05:58:55;;;;;;;6.63;3.53;;;;;;;9.31;90.23;102453.75;4947995;29;20046;-64
2022/11/12 06:01:43;;;;;;;4.55;2.70;;;;;;;9.18;89.72;102459.91;4963494;28;20050;-64
2022/11/12 06:04:27;;;;;;;7.65;3.80;;;;;;;9.29;90.41;102450.56;4957009;28;20101;-64
2022/11/12 06:07:11;;;;;;;6.30;3.47;;;;;;;9.35;89.92;102468.94;4952151;29;20090;-64
2022/11/12 06:09:54;;;;;;;8.88;3.25;;;;;;;9.21;90.32;102453.94;4953322;28;20595;-64
2022/11/12 06:12:39;;;;;;;5.90;4.15;;;;;;;9.16;90.42;102462.91;4956284;28;20131;-64
2022/11/12 06:15:25;;;;;;;7.07;4.20;;;;;;;9.17;90.85;102477.16;4951422;29;20050;-66
2022/11/12 06:18:10;;;;;;;7.65;3.88;;;;;;;9.05;90.40;102485.72;4947935;28;20050;-64
2022/11/12 06:23:58;;;;;;;6.18;3.58;;;;;;;8.96;90.75;102469.47;4948341;29;20416;-65
2022/11/12 06:26:42;;;;;;;7.18;3.88;;;;;;;9.07;90.92;102475.47;4946286;28;20416;-65
2022/11/12 06:29:26;;;;;;;5.38;3.53;;;;;;;9.12;90.23;102485.31;4956684;28;20531;-64
2022/11/12 06:32:10;;;;;;;11.20;4.43;;;;;;;9.01;89.90;102474.78;4956643;29;20137;-65
2022/11/12 06:34:54;;;;;;;7.03;3.53;;;;;;;8.96;90.23;102476.75;4953418;28;20424;-65
2022/11/12 06:37:38;;;;;;;8.27;4.00;;;;;;;8.96;90.37;102484.81;4965427;28;20049;-64
2022/11/12 06:40:22;;;;;;;11.13;3.42;;;;;;;8.91;90.26;102483.00;4950653;28;20086;-65
2022/11/12 06:43:06;;;;;;;5.10;3.53;;;;;;;8.85;90.19;102486.88;4955824;28;20054;-64
2022/11/12 06:45:50;;;;;;;7.60;3.15;;;;;;;8.91;89.63;102482.22;4954778;29;20044;-63
2022/11/12 06:48:34;;;;;;;5.82;3.03;;;;;;;8.78;90.69;102491.06;4955777;28;20177;-64
2022/11/12 06:51:19;;;;;;;5.72;3.17;;;;;;;8.83;91.64;102502.50;4962982;28;20049;-64
2022/11/12 06:54:04;;;;;;;5.30;2.75;;;;;;;8.85;91.82;102508.38;4954351;28;20049;-64
2022/11/12 06:56:48;;;;;;;14.30;3.47;;;;;;;8.88;91.14;102505.09;4955988;28;20132;-64
2022/11/12 06:59:32;;;;;;;7.22;3.45;;;;;;;8.87;91.19;102508.88;4954147;28;20388;-65
2022/11/12 07:02:16;;;;;;;5.10;2.60;;;;;;;9.03;90.20;102502.13;4959830;28;20157;-63
2022/11/12 07:05:00;;;;;;;5.10;3.20;;;;;;;8.89;90.16;102497.84;4954693;29;20117;-63
2022/11/12 07:07:44;;;;;;;5.93;2.85;;;;;;;8.81;90.45;102514.63;4947603;29;20163;-65
2022/11/12 07:10:28;;;;;;;5.55;3.42;;;;;;;8.85;90.26;102511.06;4962890;28;20046;-64
2022/11/12 07:13:12;;;;;;;4.85;3.40;;;;;;;8.93;90.65;102501.53;4953104;28;20054;-64
2022/11/12 07:15:58;;;;;;;6.45;2.83;;;;;;;8.85;90.25;102494.94;4961084;28;20099;-64
2022/11/12 07:18:42;;;;;;;7.60;3.65;;;;;;;8.84;90.37;102514.06;4968220;28;20078;-64
2022/11/12 07:21:26;;;;;;;6.40;3.50;;;;;;;8.98;90.49;102517.56;4950999;29;20074;-64
2022/11/12 07:24:10;;;;;;;6.28;3.22;;;;;;;8.91;90.54;102514.44;4953111;28;20134;-64
2022/11/12 07:26:54;;;;;;;9.55;3.60;;;;;;;8.91;90.65;102514.44;4941245;29;20042;-65
2022/11/12 07:29:38;;;;;;;5.95;3.15;;;;;;;8.92;90.86;102500.72;4955101;29;20131;-65
2022/11/12 07:32:22;;;;;;;8.48;3.53;;;;;;;8.89;90.90;102500.53;4960974;28;20072;-65
2022/11/12 07:35:07;;;;;;;9.70;3.88;;;;;;;8.93;91.27;102505.00;4954446;29;20415;-65
2022/11/12 07:37:51;;;;;;;7.65;3.92;;;;;;;8.98;91.17;102510.28;4953703;28;20109;-65
2022/11/12 07:40:34;;;;;;;5.63;3.63;;;;;;;9.03;91.27;102529.00;4952678;28;20046;-65
2022/11/12 07:43:18;;;;;;;7.18;3.47;;;;;;;9.12;91.42;102523.72;4944976;28;20071;-64
2022/11/12 07:46:11;;;;;;;5.60;3.55;;;;;;;9.08;91.11;102510.09;4952077;28;20134;-64
2022/11/12 07:48:55;;;;;;;6.72;3.10;;;;;;;9.07;91.42;102516.56;4957934;28;20050;-64
2022/11/12 07:51:39;;;;;;;4.45;3.03;;;;;;;9.08;91.21;102512.78;4954554;29;20054;-63
2022/11/12 07:54:23;;;;;;;7.68;3.85;;;;;;;9.03;91.99;102528.19;4952240;28;20050;-65
2022/11/12 07:57:07;;;;;;;5.55;3.22;;;;;;;9.16;92.49;102530.09;4958382;28;20544;-67
2022/11/12 07:59:51;;;;;;;7.50;3.83;;;;;;;9.23;92.71;102524.34;4983776;23;20183;-71
2022/11/12 08:02:35;;;;;;;6.90;4.15;;;;;;;9.14;93.57;102531.50;4990116;28;20049;-74
2022/11/12 08:05:19;;;;;;;4.47;3.03;;;;;;;9.19;93.28;102537.56;5005461;28;20045;-74
2022/11/12 08:08:03;;;;;;;4.60;2.97;;;;;;;9.37;93.18;102531.28;4989265;28;20413;-74
2022/11/12 08:10:47;;;;;;;4.63;2.80;;;;;;;9.45;93.69;102519.03;5000001;28;20514;-74
2022/11/12 08:13:31;;;;;;;4.25;2.58;;;;;;;9.78;92.90;102523.97;4993292;28;20097;-74
2022/11/12 08:16:16;;;;;;;7.10;3.33;;;;;;;9.86;92.23;102520.56;4987974;28;20093;-74
2022/11/12 08:19:03;;;;;;;8.43;3.42;;;;;;;10.08;91.86;102533.25;4990969;28;20100;-74
2022/11/12 08:21:47;;;;;;;3.95;2.65;;;;;;;10.31;90.85;102532.19;4992752;28;20100;-73
2022/11/12 08:24:31;;;;;;;5.65;3.33;;;;;;;10.39;89.64;102536.84;4990389;28;20561;-73
2022/11/12 08:27:15;;;;;;;6.35;3.67;;;;;;;10.46;89.39;102531.00;4990785;28;20057;-73
2022/11/12 08:29:59;;;;;;;7.53;3.83;;;;;;;10.55;88.48;102540.72;4989047;28;20053;-74
2022/11/12 08:32:43;;;;;;;5.40;3.17;;;;;;;10.45;88.43;102543.66;4992235;28;20088;-73
2022/11/12 08:35:28;;;;;;;4.82;2.95;;;;;;;10.52;87.96;102537.84;4987039;28;20046;-74
2022/11/12 08:38:12;;;;;;;5.53;3.50;;;;;;;10.50;88.21;102540.06;4985711;28;20049;-74
2022/11/12 08:41:00;;;;;;;6.38;3.83;;;;;;;10.69;86.16;102556.81;4991362;28;20061;-73
2022/11/12 08:43:44;;;;;;;6.10;3.83;;;;;;;10.80;85.91;102556.25;4992810;28;20045;-73
2022/11/12 08:46:28;;;;;;;7.32;3.33;;;;;;;10.88;85.29;102566.28;4985212;28;20092;-74
2022/11/12 08:49:12;;;;;;;8.02;4.10;;;;;;;10.79;85.40;102564.66;4988026;28;20076;-74
2022/11/12 08:51:56;;;;;;;11.35;3.90;;;;;;;10.78;86.14;102552.28;4991395;28;20411;-73
2022/11/12 08:54:40;;;;;;;12.02;4.30;;;;;;;10.88;85.72;102547.41;5004412;28;20110;-73
2022/11/12 08:57:24;;;;;;;5.88;3.28;;;;;;;11.09;86.53;102569.22;4988360;28;20053;-73
2022/11/12 09:00:10;;;;;;;7.88;4.00;;;;;;;11.39;86.45;102564.91;4990460;28;20060;-73
2022/11/12 09:03:01;;;;;;;7.53;3.20;;;;;;;11.59;85.32;102550.84;4981948;28;20048;-73
2022/11/12 09:05:45;;;;;;;6.40;2.95;;;;;;;11.97;83.39;102562.69;4988170;28;20116;-72
2022/11/12 09:08:31;;;;;;;5.68;3.17;;;;;;;12.01;82.08;102560.94;4984988;28;20109;-72
2022/11/12 09:11:16;;;;;;;5.22;2.78;;;;;;;12.06;81.86;102543.81;4983743;28;20041;-71
2022/11/12 09:14:00;;;;;;;5.10;2.70;;;;;;;12.14;80.96;102551.88;4981060;28;20057;-71
2022/11/12 09:16:44;;;;;;;5.20;2.50;;;;;;;12.15;79.33;102563.50;4988612;28;20561;-72
2022/11/12 09:19:28;;;;;;;6.13;2.60;;;;;;;12.30;78.46;102571.09;4987892;28;20096;-72
2022/11/12 09:22:12;;;;;;;4.55;2.53;;;;;;;12.41;77.79;102575.88;4991396;28;20057;-72
2022/11/12 09:24:56;;;;;;;6.32;2.58;;;;;;;12.52;77.16;102574.41;4988419;28;20073;-71
2022/11/12 09:27:40;;;;;;;3.90;2.28;;;;;;;12.63;76.86;102569.47;4985749;28;20129;-72
2022/11/12 09:30:24;;;;;;;4.35;2.63;;;;;;;12.70;76.65;102570.59;4988541;28;20048;-72
2022/11/12 09:33:08;;;;;;;3.40;2.13;;;;;;;12.86;76.26;102573.56;4983714;28;20056;-72
2022/11/12 09:35:59;;;;;;;5.32;2.55;;;;;;;12.91;74.75;102580.72;4993137;28;20045;-72
2022/11/12 09:38:46;;;;;;;5.03;2.50;;;;;;;13.13;75.13;102572.38;4984711;28;20092;-73
2022/11/12 09:41:36;;;;;;;6.93;2.75;;;;;;;13.21;73.96;102580.47;4989003;28;20077;-72
2022/11/12 09:44:23;;;;;;;4.05;2.85;;;;;;;12.92;73.77;102583.09;4995068;28;20419;-72
2022/11/12 09:47:29;;;;;;;6.45;2.47;;;;;;;12.85;74.66;102572.00;4989401;28;20045;-71
2022/11/12 09:50:23;;;;;;;4.93;2.40;;;;;;;13.13;74.91;102567.78;4989548;28;20467;-72
2022/11/12 09:53:11;;;;;;;9.32;2.53;;;;;;;13.32;74.31;102573.56;5001096;28;20185;-71
2022/11/12 09:55:56;;;;;;;2.97;1.83;;;;;;;13.37;72.02;102578.81;4980980;28;20165;-72
2022/11/12 09:59:00;;;;;;;6.05;3.05;;;;;;;13.35;72.47;102574.84;4981681;28;20097;-72
2022/11/12 10:02:13;;;;;;;7.80;2.47;;;;;;;13.34;73.18;102573.25;4950307;29;20122;-72
2022/11/12 10:05:14;;;;;;;6.03;2.42;;;;;;;13.33;73.36;102572.47;4936711;28;20042;-72
2022/11/12 10:08:05;;;;;;;;;;;;;;;13.36;73.62;102571.81;4950584;28;20218;-73
2022/11/12 10:10:58;;;;;;;4.70;2.60;;;;;;;13.43;73.08;102576.72;4947400;28;20291;-73
2022/11/12 10:14:12;;;;;;;5.20;2.78;;;;;;;13.43;72.89;102582.13;4939664;29;20082;-72
2022/11/12 10:17:38;;;;;;;5.90;2.80;;;;;;;13.51;72.73;102575.91;4944138;28;20046;-72
2022/11/12 10:20:33;;;;;;;6.00;2.95;;;;;;;13.35;72.86;102588.38;4930226;29;20070;-72
2022/11/12 10:23:21;;;;;;;9.23;3.10;;;;;;;13.65;72.92;102597.28;4949411;29;20049;-72
2022/11/12 10:26:24;;;;;;;8.95;3.08;;;;;;;13.91;71.22;102585.19;4946277;29;20518;-72
2022/11/12 10:29:24;;;;;;;6.38;3.00;;;;;;;13.89;71.46;102589.34;4942367;29;20058;-72
2022/11/12 10:32:14;;;;;;;10.63;3.60;;;;;;;13.97;71.40;102591.22;4946721;29;20062;-72
2022/11/12 10:34:58;;;;;;;5.78;2.55;;;;;;;14.04;71.20;102600.41;4941854;28;20053;-73
2022/11/12 10:38:04;;;;;;;10.88;3.28;;;;;;;14.14;71.14;102599.19;4950222;28;20118;-72
2022/11/12 10:40:48;;;;;;;6.18;3.20;;;;;;;14.18;69.80;102592.00;4986530;28;20045;-72
2022/11/12 10:43:32;;;;;;;5.47;2.65;;;;;;;14.23;70.15;102583.66;4987925;28;20506;-72
2022/11/12 10:46:20;;;;;;;9.57;3.30;;;;;;;14.20;69.80;102603.31;4985665;28;20073;-72
2022/11/12 10:49:07;;;;;;;5.72;2.78;;;;;;;14.21;69.94;102586.72;4984043;28;20077;-72
2022/11/12 10:51:56;;;;;;;5.15;2.50;;;;;;;14.25;70.23;102581.41;4989911;28;20114;-73
2022/11/12 10:54:40;;;;;;;5.70;3.38;;;;;;;14.35;70.22;102587.25;4986112;28;20052;-71
2022/11/12 10:57:26;;;;;;;4.45;2.83;;;;;;;14.34;70.74;102601.16;4984545;28;20045;-73
2022/11/12 11:00:13;;;;;;;3.80;2.47;;;;;;;14.35;71.32;102598.09;4989740;28;20049;-72
2022/11/12 11:03:00;;;;;;;6.97;3.10;;;;;;;14.39;71.41;102596.31;4989402;28;20049;-72
2022/11/12 11:05:44;;;;;;;7.53;2.60;;;;;;;14.43;71.38;102594.53;4984309;28;20044;-73
2022/11/12 11:08:47;;;;;;;5.55;2.85;;;;;;;14.45;71.42;102581.44;4987813;28;20429;-72
2022/11/12 11:11:31;;;;;;;6.70;2.83;;;;;;;14.53;70.53;102587.91;4986786;28;20061;-73
2022/11/12 11:14:21;;;;;;;7.40;3.10;;;;;;;14.64;69.95;102586.34;4984900;28;20140;-73
2022/11/12 11:17:13;;;;;;;8.20;3.33;;;;;;;14.56;70.13;102575.56;4990007;28;20065;-73
2022/11/12 11:19:58;;;;;;;5.30;3.10;;;;;;;14.55;70.47;102580.22;4989316;28;20117;-72
2022/11/12 11:22:46;;;;;;;5.35;2.95;;;;;;;14.69;70.29;102569.84;4988395;28;20282;-72
2022/11/12 11:25:34;;;;;;;5.60;2.67;;;;;;;14.67;70.58;102576.75;4984525;28;20119;-72
2022/11/12 11:28:37;;;;;;;16.65;2.60;;;;;;;14.74;69.99;102583.22;4987730;28;20557;-72
2022/11/12 11:31:38;;;;;;;5.50;3.00;;;;;;;14.60;70.40;102571.06;4989822;28;20553;-72
2022/11/12 11:34:44;;;;;;;9.75;3.72;;;;;;;14.68;70.63;102567.47;4990369;28;20081;-72
2022/11/12 11:37:31;;;;;;;5.88;2.85;;;;;;;14.72;70.19;102554.84;4993591;28;20049;-72
2022/11/12 11:40:18;;;;;;;5.32;2.58;;;;;;;14.72;70.42;102562.97;4983361;28;20073;-72
2022/11/12 11:43:25;;;;;;;6.07;2.72;;;;;;;14.73;70.39;102567.28;4989404;28;20088;-72
2022/11/12 11:46:26;;;;;;;4.88;2.78;;;;;;;14.85;70.18;102568.09;4981731;28;20537;-73
2022/11/12 11:49:28;;;;;;;4.75;2.88;;;;;;;14.87;70.52;102563.13;4983127;28;20057;-73
2022/11/12 11:52:25;;;;;;;6.25;2.65;;;;;;;15.00;70.07;102563.97;4998546;28;20085;-72
2022/11/12 11:55:21;;;;;;;5.07;2.50;;;;;;;15.08;69.41;102571.97;4996569;28;20509;-71
2022/11/12 11:58:23;;;;;;;6.90;2.95;;;;;;;15.13;69.82;102571.78;4993897;28;20104;-72
2022/11/12 12:01:14;;;;;;;5.97;2.80;;;;;;;15.22;69.39;102563.50;4983046;28;20104;-72
2022/11/12 12:04:14;;;;;;;6.53;2.72;;;;;;;15.22;69.42;102568.94;4991324;28;20129;-74
2022/11/12 12:07:08;;;;;;;5.55;2.72;;;;;;;15.24;70.20;102574.81;4984221;28;20104;-73
2022/11/12 12:09:55;;;;;;;7.20;2.90;;;;;;;15.20;70.14;102582.06;4983244;28;20049;-72
2022/11/12 12:12:46;;;;;;;4.75;2.55;;;;;;;15.21;70.35;102580.94;4989120;28;20096;-73
2022/11/12 12:16:11;;;;;;;5.20;2.35;;;;;;;15.22;70.78;102572.44;4997722;28;20053;-73
2022/11/12 12:19:26;;;;;;;5.32;2.13;;;;;;;15.22;71.38;102575.16;4958578;28;20070;-73
2022/11/12 12:22:18;;;;;;;7.05;2.58;;;;;;;15.26;71.11;102565.22;4966596;28;20123;-72
2022/11/12 12:25:35;;;;;;;7.63;3.13;;;;;;;15.27;71.22;102564.06;4963113;28;20065;-72
2022/11/12 12:28:36;;;;;;;4.50;2.78;;;;;;;15.29;70.75;102561.03;4970388;28;20175;-73
2022/11/12 12:31:26;;;;;;;7.40;2.55;;;;;;;15.30;70.97;102568.03;4953122;28;20046;-72
2022/11/12 12:34:31;;;;;;;8.07;3.00;;;;;;;15.23;71.36;102563.16;4966204;28;20050;-72
2022/11/12 12:37:32;;;;;;;8.05;3.13;;;;;;;15.18;70.91;102563.41;4944855;28;20081;-73
2022/11/12 12:40:25;;;;;;;5.47;2.65;;;;;;;15.06;71.11;102555.25;4968246;28;20729;-74
2022/11/12 12:43:32;;;;;;;6.60;2.97;;;;;;;15.20;70.80;102547.56;4968358;28;20181;-71
2022/11/12 12:46:21;;;;;;;4.53;2.60;;;;;;;15.16;71.21;102540.44;4961039;28;20094;-72
2022/11/12 12:49:06;;;;;;;4.40;2.60;;;;;;;15.18;71.23;102538.16;4975859;28;20044;-72
2022/11/12 12:51:50;;;;;;;5.65;2.95;;;;;;;15.23;70.79;102535.25;4992528;28;20049;-72
2022/11/12 12:54:34;;;;;;;5.72;2.95;;;;;;;15.25;70.53;102522.91;4978806;28;20495;-72
2022/11/12 12:57:30;;;;;;;8.50;3.30;;;;;;;15.15;70.44;102523.38;4984220;28;20080;-71
2022/11/12 13:00:35;;;;;;;4.22;2.47;;;;;;;15.25;70.33;102516.69;4987075;28;20076;-72
2022/11/12 13:03:41;;;;;;;6.10;2.75;;;;;;;15.28;69.50;102526.88;4986268;28;20128;-73
2022/11/12 13:06:50;;;;;;;4.40;2.75;;;;;;;15.34;68.79;102525.50;4985323;28;20129;-72
2022/11/12 13:09:34;;;;;;;9.15;2.95;;;;;;;15.33;68.91;102510.31;4989201;28;20061;-72
2022/11/12 13:15:14;;;;;;;3.80;2.10;;;;;;;15.22;68.66;102523.59;4984324;28;20073;-72
2022/11/12 13:17:58;;;;;;;4.13;2.60;;;;;;;15.32;68.76;102519.63;4985875;28;20120;-72
2022/11/12 13:21:02;;;;;;;7.30;3.10;;;;;;;15.28;68.06;102510.56;4982898;28;20061;-72
2022/11/12 13:24:06;;;;;;;3.78;1.90;;;;;;;15.13;68.83;102503.91;4990288;28;20125;-72
2022/11/12 13:26:52;;;;;;;4.05;2.10;;;;;;;15.00;69.32;102509.69;4986574;28;20474;-71
2022/11/12 13:29:36;;;;;;;6.47;2.58;;;;;;;15.03;69.42;102503.56;4989781;28;20076;-72